Prins Christian Sund, Greenland
Current Conditions -  °F | °C
As of 8:50 PM on Saturday 25 Oct 2014 (Local Time) from BGBW Reporting Station
Clear Clear  
Wind Chill: 12°   Ceiling: Unl
Heat Index: 25°   Visibility: 6mi
Dew Point: -2°   Wind: 15mph
Humidity: 31%   Direction: 80°E
Pressure: 29.38"   Gusts: NA
Location:  60.05°N, 43.17°W
Report Text: BGBW 252250Z 08013KT 9999 SKC M04/M19 Q0995
Loading
Personal Weather Stations






























Interactive Weather Map
Tropical Storm Tracking
New forecast layout! Learn more

10-Day Weather Forecast

Advertisements
Track Severe Weather on mobile